Time;durP1;ratioP1;P1;durP2;ratioP2;P2;SDS_P1;SDS_P2;PMS_P1;PMS_P2;Temp;Humidity;BMP_temperature;BMP_pressure;BME280_temperature;BME280_humidity;BME280_pressure;Samples;Min_cycle;Max_cycle;Signal;HPM_P1;HPM_P2
2023/03/22 00:01:18;;;;;;;;;;;11.90;99.90;;;;;;5071580;28;19930;-95
2023/03/22 00:03:54;;;;;;;;;;;11.90;99.90;;;;;;5065539;28;19909;-96
2023/03/22 00:06:28;;;;;;;;;;;11.80;99.90;;;;;;5029471;28;19913;-94
2023/03/22 00:08:56;;;;;;;;;;;11.80;99.90;;;;;;5064587;28;19909;-94
2023/03/22 00:11:27;;;;;;;;;;;11.80;99.90;;;;;;5044620;28;19988;-96
2023/03/22 00:13:53;;;;;;;;;;;11.80;99.90;;;;;;5045960;28;19924;-94
2023/03/22 00:16:19;;;;;;;;;;;11.80;99.90;;;;;;5049178;28;20268;-95
2023/03/22 00:18:45;;;;;;;;;;;11.70;99.90;;;;;;5047362;28;19917;-93
2023/03/22 00:21:15;;;;;;;;;;;11.70;99.90;;;;;;5048218;28;20365;-95
2023/03/22 00:23:41;;;;;;;;;;;11.70;99.90;;;;;;5047758;28;19966;-94
2023/03/22 00:26:10;;;;;;;;;;;11.60;99.90;;;;;;5046736;28;19913;-95
2023/03/22 00:28:36;;;;;;;;;;;11.70;99.90;;;;;;5048603;28;19972;-95
2023/03/22 00:31:05;;;;;;;;;;;11.60;99.90;;;;;;5050342;28;19975;-96
2023/03/22 00:33:31;;;;;;;;;;;11.80;99.90;;;;;;5052024;28;19920;-95
2023/03/22 00:36:00;;;;;;;;;;;11.80;99.90;;;;;;5046656;28;19920;-94
2023/03/22 00:38:35;;;;;;;;;;;11.50;99.90;;;;;;5048078;28;19923;-94
2023/03/22 00:41:21;;;;;;;;;;;11.60;99.90;;;;;;5048416;28;19909;-95
2023/03/22 00:44:00;;;;;;;;;;;;;;;;;;;;;
2023/03/22 00:46:28;;;;;;;;;;;11.50;99.90;;;;;;5051282;28;19975;-96
2023/03/22 00:48:57;;;;;;;;;;;11.50;99.90;;;;;;5048626;28;19976;-96
2023/03/22 00:51:23;;;;;;;;;;;11.50;99.90;;;;;;5048576;28;19924;-96
2023/03/22 00:53:56;;;;;;;;;;;11.40;99.90;;;;;;5047345;28;20230;-95
2023/03/22 00:56:27;;;;;;;;;;;11.50;99.90;;;;;;5065282;28;19962;-94
2023/03/22 00:58:53;;;;;;;;;;;11.50;99.90;;;;;;5047897;28;20428;-94
2023/03/22 01:01:19;;;;;;;;;;;11.40;99.90;;;;;;5046760;28;19909;-94
2023/03/22 01:03:50;;;;;;;;;;;11.40;99.90;;;;;;5051962;28;19892;-94
2023/03/22 01:06:16;;;;;;;;;;;11.30;99.90;;;;;;5039602;23;19975;-92
2023/03/22 01:08:42;;;;;;;;;;;11.40;99.90;;;;;;5023814;28;19913;-93
2023/03/22 01:11:08;;;;;;;;;;;11.40;99.90;;;;;;5020476;28;19970;-92
2023/03/22 01:13:36;;;;;;;;;;;11.40;99.90;;;;;;5002610;28;19917;-88
2023/03/22 01:16:02;;;;;;;;;;;11.40;99.90;;;;;;5019087;28;20277;-87
2023/03/22 01:18:27;;;;;;;;;;;11.40;99.90;;;;;;5002356;28;19914;-87
2023/03/22 01:20:53;;;;;;;;;;;11.40;99.90;;;;;;5023145;28;19913;-88
2023/03/22 01:23:19;;;;;;;;;;;11.40;99.90;;;;;;5023831;28;19916;-87
2023/03/22 01:25:45;;;;;;;;;;;11.40;99.90;;;;;;4999183;28;19913;-88
2023/03/22 01:28:11;;;;;;;;;;;11.40;99.90;;;;;;5015251;28;19913;-88
2023/03/22 01:30:38;;;;;;;;;;;11.30;99.90;;;;;;5002836;28;20378;-91
2023/03/22 01:33:04;;;;;;;;;;;11.30;99.90;;;;;;5018803;28;20369;-92
2023/03/22 01:35:31;;;;;;;;;;;11.20;99.90;;;;;;5020856;28;19914;-92
2023/03/22 01:37:57;;;;;;;;;;;11.20;99.90;;;;;;5003329;28;19913;-92
2023/03/22 01:40:22;;;;;;;;;;;11.10;99.90;;;;;;5007930;28;19924;-92
2023/03/22 01:42:48;;;;;;;;;;;11.10;99.90;;;;;;5036250;28;19920;-92
2023/03/22 01:45:14;;;;;;;;;;;11.00;99.90;;;;;;5019639;28;19920;-88
2023/03/22 01:47:41;;;;;;;;;;;11.00;99.90;;;;;;5034471;28;20385;-88
2023/03/22 01:50:07;;;;;;;;;;;11.00;99.90;;;;;;5034481;28;19909;-88
2023/03/22 01:52:33;;;;;;;;;;;10.90;99.90;;;;;;5017975;28;19964;-89
2023/03/22 01:54:59;;;;;;;;;;;10.90;99.90;;;;;;5018128;28;19913;-88
2023/03/22 01:57:24;;;;;;;;;;;10.90;99.90;;;;;;5035390;28;19920;-89
2023/03/22 01:59:50;;;;;;;;;;;10.90;99.90;;;;;;5018158;28;19913;-89
2023/03/22 02:02:18;;;;;;;;;;;10.90;99.90;;;;;;5017964;28;19913;-88
2023/03/22 02:04:44;;;;;;;;;;;10.90;99.90;;;;;;5023045;28;19921;-88
2023/03/22 02:07:14;;;;;;;;;;;10.90;99.90;;;;;;4994879;28;19909;-88
2023/03/22 02:09:41;;;;;;;;;;;11.00;99.90;;;;;;4994818;28;19910;-88
2023/03/22 02:12:06;;;;;;;;;;;11.00;99.90;;;;;;4994510;28;19918;-88
2023/03/22 02:14:47;;;;;;;;;;;10.90;99.90;;;;;;4994739;28;20045;-88
2023/03/22 02:17:27;;;;;;;;;;;11.00;99.90;;;;;;4998290;28;19909;-88
2023/03/22 02:20:11;;;;;;;;;;;11.00;99.90;;;;;;4998966;28;19910;-91
2023/03/22 02:22:57;;;;;;;;;;;11.10;99.90;;;;;;5005969;28;19980;-92
2023/03/22 02:25:45;;;;;;;;;;;11.00;99.90;;;;;;5005623;28;19960;-91
2023/03/22 02:28:20;;;;;;;;;;;11.10;99.90;;;;;;5004045;28;19936;-91
2023/03/22 02:31:07;;;;;;;;;;;11.10;99.90;;;;;;5006239;28;19909;-91
2023/03/22 02:33:51;;;;;;;;;;;11.20;99.90;;;;;;5006610;28;19932;-91
2023/03/22 02:36:31;;;;;;;;;;;11.20;99.90;;;;;;5004868;28;20464;-87
2023/03/22 02:39:03;;;;;;;;;;;11.20;99.90;;;;;;5017500;28;19909;-88
2023/03/22 02:41:36;;;;;;;;;;;11.20;99.90;;;;;;4999362;28;20374;-88
2023/03/22 02:44:16;;;;;;;;;;;11.20;99.90;;;;;;4997286;28;19913;-88
2023/03/22 02:47:00;;;;;;;;;;;11.30;99.90;;;;;;4997196;28;19910;-88
2023/03/22 02:49:32;;;;;;;;;;;11.30;99.90;;;;;;4997089;28;19910;-88
2023/03/22 02:52:10;;;;;;;;;;;11.30;99.90;;;;;;4998267;28;19954;-92
2023/03/22 02:54:41;;;;;;;;;;;11.40;99.90;;;;;;4980477;28;19916;-91
2023/03/22 02:57:13;;;;;;;;;;;11.40;99.90;;;;;;4978858;28;19910;-92
2023/03/22 02:59:40;;;;;;;;;;;11.40;99.90;;;;;;4991614;28;19909;-91
2023/03/22 03:02:08;;;;;;;;;;;11.40;99.90;;;;;;4998047;28;20275;-92
2023/03/22 03:04:36;;;;;;;;;;;11.40;99.90;;;;;;4997916;28;20359;-92
2023/03/22 03:07:04;;;;;;;;;;;11.40;99.90;;;;;;4998140;28;19961;-91
2023/03/22 03:09:30;;;;;;;;;;;11.40;99.90;;;;;;5000848;28;19932;-91
2023/03/22 03:11:56;;;;;;;;;;;11.40;99.90;;;;;;4990014;28;19956;-91
2023/03/22 03:14:26;;;;;;;;;;;11.40;99.90;;;;;;5014912;28;19913;-92
2023/03/22 03:17:21;;;;;;;;;;;11.40;99.90;;;;;;5005848;28;19917;-91
2023/03/22 03:19:55;;;;;;;;;;;11.40;99.90;;;;;;4913669;28;19918;-91
2023/03/22 03:25:42;;;;;;;;;;;11.40;99.90;;;;;;5017966;28;19917;-88
2023/03/22 03:28:37;;;;;;;;;;;11.40;99.90;;;;;;4996953;28;20416;-91
2023/03/22 03:31:08;;;;;;;;;;;11.30;99.90;;;;;;4963071;28;19914;-92
2023/03/22 03:33:36;;;;;;;;;;;11.40;99.90;;;;;;4997542;28;19910;-92
2023/03/22 03:36:04;;;;;;;;;;;11.30;99.90;;;;;;4997627;28;19932;-91
2023/03/22 03:38:33;;;;;;;;;;;11.30;99.90;;;;;;5018903;28;20315;-92
2023/03/22 03:41:10;;;;;;;;;;;11.30;99.90;;;;;;5003196;28;19913;-90
2023/03/22 03:43:36;;;;;;;;;;;11.30;99.90;;;;;;4998238;28;19910;-88
2023/03/22 03:46:01;;;;;;;;;;;11.30;99.90;;;;;;4998206;28;20358;-88
2023/03/22 03:48:28;;;;;;;;;;;11.30;99.90;;;;;;5000718;28;19948;-88
2023/03/22 03:50:54;;;;;;;;;;;11.30;99.90;;;;;;5017724;28;19967;-89
2023/03/22 03:53:20;;;;;;;;;;;11.30;99.90;;;;;;4997113;28;19909;-88
2023/03/22 03:55:46;;;;;;;;;;;11.30;99.90;;;;;;4997348;28;20317;-91
2023/03/22 03:58:11;;;;;;;;;;;11.30;99.90;;;;;;4983373;28;19913;-91
2023/03/22 04:00:37;;;;;;;;;;;11.30;99.90;;;;;;4980753;28;20012;-88
2023/03/22 04:03:04;;;;;;;;;;;11.30;99.90;;;;;;4996784;28;19932;-88
2023/03/22 04:05:30;;;;;;;;;;;11.30;99.90;;;;;;5005050;28;20362;-91
2023/03/22 04:07:55;;;;;;;;;;;11.40;99.90;;;;;;5015318;28;19916;-91
2023/03/22 04:10:21;;;;;;;;;;;11.40;99.90;;;;;;4996925;28;20024;-87
2023/03/22 04:12:46;;;;;;;;;;;11.40;99.90;;;;;;5012741;28;19918;-87
2023/03/22 04:15:12;;;;;;;;;;;11.30;99.90;;;;;;5012781;28;19913;-92
2023/03/22 04:17:38;;;;;;;;;;;11.30;99.90;;;;;;5043524;28;20342;-91
2023/03/22 04:20:05;;;;;;;;;;;11.30;99.90;;;;;;5033978;28;19909;-91
2023/03/22 04:22:33;;;;;;;;;;;11.30;99.90;;;;;;5038994;28;19920;-91
2023/03/22 04:25:00;;;;;;;;;;;11.30;99.90;;;;;;5033428;28;19936;-91
2023/03/22 04:27:26;;;;;;;;;;;11.30;99.90;;;;;;5034915;28;19952;-90
2023/03/22 04:29:53;;;;;;;;;;;11.30;99.90;;;;;;5036662;28;19916;-90
2023/03/22 04:32:21;;;;;;;;;;;11.30;99.90;;;;;;5033885;28;19921;-88
2023/03/22 04:34:47;;;;;;;;;;;11.30;99.90;;;;;;4996068;28;20012;-88
2023/03/22 04:37:14;;;;;;;;;;;11.30;99.90;;;;;;4987329;28;20338;-88
2023/03/22 04:39:40;;;;;;;;;;;11.30;99.90;;;;;;5016120;28;20370;-88
2023/03/22 04:42:05;;;;;;;;;;;11.30;99.90;;;;;;5017580;28;19913;-88
2023/03/22 04:44:31;;;;;;;;;;;11.30;99.90;;;;;;5035956;28;20386;-88
2023/03/22 04:46:56;;;;;;;;;;;11.30;99.90;;;;;;5020317;28;19928;-89
2023/03/22 04:49:22;;;;;;;;;;;11.30;99.90;;;;;;5025310;28;20372;-92
2023/03/22 04:51:48;;;;;;;;;;;11.20;99.90;;;;;;5040805;28;19913;-91
2023/03/22 04:54:13;;;;;;;;;;;11.30;99.90;;;;;;5021180;28;19953;-91
2023/03/22 04:56:39;;;;;;;;;;;11.20;99.90;;;;;;5023560;28;20308;-91
2023/03/22 04:59:04;;;;;;;;;;;11.20;99.90;;;;;;5020703;28;20374;-91
2023/03/22 05:01:30;;;;;;;;;;;11.20;99.90;;;;;;5020702;28;19913;-91
2023/03/22 05:03:55;;;;;;;;;;;11.20;99.90;;;;;;5022720;28;20412;-91
2023/03/22 05:06:21;;;;;;;;;;;11.10;99.90;;;;;;5022192;28;19929;-91
2023/03/22 05:08:46;;;;;;;;;;;11.10;99.90;;;;;;5019845;28;19983;-91
2023/03/22 05:11:15;;;;;;;;;;;11.00;99.90;;;;;;5036149;28;20393;-91
2023/03/22 05:13:40;;;;;;;;;;;11.00;99.90;;;;;;5036805;28;19917;-91
2023/03/22 05:16:06;;;;;;;;;;;11.00;99.90;;;;;;5020715;28;19913;-88
2023/03/22 05:18:32;;;;;;;;;;;11.00;99.90;;;;;;5035813;28;19937;-88
2023/03/22 05:20:58;;;;;;;;;;;11.00;99.90;;;;;;5037422;28;19914;-89
2023/03/22 05:23:24;;;;;;;;;;;11.00;99.90;;;;;;5049194;28;20366;-92
2023/03/22 05:25:50;;;;;;;;;;;11.00;99.90;;;;;;5039146;28;19924;-91
2023/03/22 05:28:21;;;;;;;;;;;11.00;99.90;;;;;;5000847;28;19914;-92
2023/03/22 05:30:47;;;;;;;;;;;10.90;99.90;;;;;;4998574;28;19909;-91
2023/03/22 05:33:13;;;;;;;;;;;10.90;99.90;;;;;;4981083;28;19925;-92
2023/03/22 05:35:39;;;;;;;;;;;10.90;99.90;;;;;;4996782;28;19910;-93
2023/03/22 05:38:05;;;;;;;;;;;10.90;99.90;;;;;;4981283;28;19918;-91
2023/03/22 05:40:31;;;;;;;;;;;10.90;99.90;;;;;;4995385;28;19937;-88
2023/03/22 05:42:56;;;;;;;;;;;10.90;99.90;;;;;;4995854;28;19917;-88
2023/03/22 05:45:22;;;;;;;;;;;10.90;99.90;;;;;;5018118;28;20385;-88
2023/03/22 05:47:48;;;;;;;;;;;10.90;99.90;;;;;;5005073;28;19933;-88
2023/03/22 05:50:15;;;;;;;;;;;10.90;99.90;;;;;;4995495;28;19910;-89
2023/03/22 05:52:41;;;;;;;;;;;10.90;99.90;;;;;;5006868;28;19921;-88
2023/03/22 05:55:09;;;;;;;;;;;10.90;99.90;;;;;;5015151;28;20143;-88
2023/03/22 05:57:35;;;;;;;;;;;10.90;99.90;;;;;;5021563;28;20274;-88
2023/03/22 06:00:00;;;;;;;;;;;10.90;99.90;;;;;;5017920;28;20004;-89
2023/03/22 06:02:26;;;;;;;;;;;10.90;99.90;;;;;;5034387;28;19967;-89
2023/03/22 06:04:52;;;;;;;;;;;10.90;99.90;;;;;;5034531;28;19928;-89
2023/03/22 06:07:17;;;;;;;;;;;10.90;99.90;;;;;;5035439;28;19928;-89
2023/03/22 06:09:43;;;;;;;;;;;10.90;99.90;;;;;;4990062;28;19918;-89
2023/03/22 06:12:09;;;;;;;;;;;10.90;99.90;;;;;;4979607;28;19981;-92
2023/03/22 06:14:35;;;;;;;;;;;10.90;99.90;;;;;;4996028;28;19916;-92
2023/03/22 06:17:00;;;;;;;;;;;10.90;99.90;;;;;;4995702;28;19920;-93
2023/03/22 06:19:26;;;;;;;;;;;10.90;99.90;;;;;;4995593;28;19910;-90
2023/03/22 06:21:55;;;;;;;;;;;10.90;99.90;;;;;;4980227;28;19936;-92
2023/03/22 06:24:20;;;;;;;;;;;10.90;99.90;;;;;;4986444;28;19960;-91
2023/03/22 06:26:46;;;;;;;;;;;10.80;99.90;;;;;;5035787;28;19910;-90
2023/03/22 06:29:12;;;;;;;;;;;10.90;99.90;;;;;;5016252;28;19932;-91
2023/03/22 06:31:37;;;;;;;;;;;10.90;99.90;;;;;;4979071;28;19922;-90
2023/03/22 06:34:20;;;;;;;;;;;10.90;99.90;;;;;;5004521;28;19910;-90
2023/03/22 06:36:45;;;;;;;;;;;10.80;99.90;;;;;;5006496;28;19898;-90
2023/03/22 06:39:11;;;;;;;;;;;10.90;99.90;;;;;;4981651;28;20287;-92
2023/03/22 06:41:36;;;;;;;;;;;10.80;99.90;;;;;;4978908;28;19918;-91
2023/03/22 06:44:02;;;;;;;;;;;10.80;99.90;;;;;;4980890;28;20351;-89
2023/03/22 06:46:27;;;;;;;;;;;10.90;99.90;;;;;;4994278;28;19914;-90
2023/03/22 06:48:53;;;;;;;;;;;10.80;99.90;;;;;;4994888;28;20219;-91
2023/03/22 06:51:18;;;;;;;;;;;10.90;99.90;;;;;;4993728;28;19984;-90
2023/03/22 06:53:45;;;;;;;;;;;10.90;99.90;;;;;;4978107;28;19914;-89
2023/03/22 06:56:10;;;;;;;;;;;10.90;99.90;;;;;;4994006;28;19953;-89
2023/03/22 06:58:36;;;;;;;;;;;10.90;99.90;;;;;;5012128;28;19964;-89
2023/03/22 07:01:02;;;;;;;;;;;10.90;99.90;;;;;;5013682;28;19967;-89
2023/03/22 07:03:27;;;;;;;;;;;11.00;99.90;;;;;;5013211;28;19910;-88
2023/03/22 07:05:59;;;;;;;;;;;11.00;99.90;;;;;;5005499;28;19944;-89
2023/03/22 07:08:24;;;;;;;;;;;11.00;99.90;;;;;;5006553;28;19916;-89
2023/03/22 07:10:50;;;;;;;;;;;11.10;99.90;;;;;;4996706;28;19921;-88
2023/03/22 07:13:15;;;;;;;;;;;11.10;99.90;;;;;;4996859;28;19910;-88
2023/03/22 07:15:41;;;;;;;;;;;11.20;99.90;;;;;;4980090;28;19914;-89
2023/03/22 07:18:07;;;;;;;;;;;11.20;99.90;;;;;;4980625;28;19914;-88
2023/03/22 07:20:35;;;;;;;;;;;11.20;99.90;;;;;;4982334;28;19914;-93
2023/03/22 07:23:01;;;;;;;;;;;11.30;99.90;;;;;;4990250;28;19922;-92
2023/03/22 07:25:27;;;;;;;;;;;11.30;99.90;;;;;;5004268;28;19919;-93
2023/03/22 07:27:52;;;;;;;;;;;11.30;99.90;;;;;;4963514;28;19968;-93
2023/03/22 07:30:18;;;;;;;;;;;11.40;99.90;;;;;;4963237;28;19913;-93
2023/03/22 07:32:43;;;;;;;;;;;11.40;99.90;;;;;;4993084;28;19914;-94
2023/03/22 07:35:09;;;;;;;;;;;11.40;99.90;;;;;;5006794;28;19913;-89
2023/03/22 07:37:34;;;;;;;;;;;11.40;99.90;;;;;;4982531;28;19924;-89
2023/03/22 07:40:00;;;;;;;;;;;11.50;99.90;;;;;;4980392;28;20016;-88
2023/03/22 07:42:25;;;;;;;;;;;11.50;99.90;;;;;;4979920;28;19913;-89
2023/03/22 07:44:51;;;;;;;;;;;11.50;99.90;;;;;;4996343;28;19918;-88
2023/03/22 07:47:16;;;;;;;;;;;11.50;99.90;;;;;;4996104;28;19932;-88
2023/03/22 07:52:45;;;;;;;;;;;11.50;99.90;;;;;;5012666;28;19967;-90
2023/03/22 07:55:11;;;;;;;;;;;11.50;99.90;;;;;;4997130;28;19961;-90
2023/03/22 07:57:37;;;;;;;;;;;11.50;99.90;;;;;;4993511;28;19910;-89
2023/03/22 08:00:04;;;;;;;;;;;11.50;99.90;;;;;;4994019;28;20393;-90
2023/03/22 08:02:30;;;;;;;;;;;11.50;99.90;;;;;;4995896;28;19917;-89
2023/03/22 08:04:56;;;;;;;;;;;11.50;99.90;;;;;;4989594;28;19925;-90
2023/03/22 08:07:23;;;;;;;;;;;11.60;99.90;;;;;;5025187;28;19925;-89
2023/03/22 08:09:49;;;;;;;;;;;11.60;99.90;;;;;;5004082;28;19928;-90
2023/03/22 08:12:15;;;;;;;;;;;11.60;99.90;;;;;;5003725;28;19921;-90
2023/03/22 08:14:40;;;;;;;;;;;11.60;99.90;;;;;;5022063;28;19913;-90
2023/03/22 08:17:06;;;;;;;;;;;11.70;99.90;;;;;;5023739;28;19910;-90
2023/03/22 08:19:32;;;;;;;;;;;11.70;99.90;;;;;;5004148;28;20020;-90
2023/03/22 08:21:58;;;;;;;;;;;11.70;99.90;;;;;;5024589;28;20307;-92
2023/03/22 08:24:24;;;;;;;;;;;11.70;99.90;;;;;;5029562;28;19909;-89
2023/03/22 08:26:50;;;;;;;;;;;11.80;99.90;;;;;;5006454;28;19924;-91
2023/03/22 08:29:15;;;;;;;;;;;11.80;99.90;;;;;;5013750;28;19917;-92
2023/03/22 08:31:41;;;;;;;;;;;11.80;99.90;;;;;;5025463;28;19937;-91
2023/03/22 08:34:07;;;;;;;;;;;11.90;99.90;;;;;;5004784;28;19917;-92
2023/03/22 08:36:33;;;;;;;;;;;11.90;99.90;;;;;;5022465;28;19913;-91
2023/03/22 08:38:58;;;;;;;;;;;12.00;99.90;;;;;;5022434;28;19916;-91
2023/03/22 08:41:24;;;;;;;;;;;12.00;99.90;;;;;;5028199;28;19916;-91
2023/03/22 08:43:49;;;;;;;;;;;12.00;99.90;;;;;;5027583;28;20003;-88
2023/03/22 08:46:15;;;;;;;;;;;12.10;99.90;;;;;;5019495;28;20012;-89
2023/03/22 08:48:41;;;;;;;;;;;12.10;99.90;;;;;;5024207;28;19917;-88
2023/03/22 08:51:06;;;;;;;;;;;12.10;99.90;;;;;;5032503;28;20362;-92
2023/03/22 08:53:32;;;;;;;;;;;12.10;99.90;;;;;;5013026;28;20004;-93
2023/03/22 08:56:00;;;;;;;;;;;12.10;99.90;;;;;;5027015;28;19913;-92
2023/03/22 08:58:26;;;;;;;;;;;12.10;99.90;;;;;;5033971;28;19917;-92
2023/03/22 09:00:51;;;;;;;;;;;12.20;99.90;;;;;;5028646;28;19909;-93
2023/03/22 09:03:17;;;;;;;;;;;12.20;99.90;;;;;;5023816;28;19909;-92
2023/03/22 09:05:42;;;;;;;;;;;12.20;99.90;;;;;;5015326;28;19913;-91
2023/03/22 09:08:08;;;;;;;;;;;12.30;99.90;;;;;;5002710;28;19924;-92
2023/03/22 09:10:36;;;;;;;;;;;12.40;99.90;;;;;;5022228;28;19910;-92
2023/03/22 09:13:02;;;;;;;;;;;12.40;99.90;;;;;;5019426;28;19917;-92
2023/03/22 09:15:27;;;;;;;;;;;12.50;99.90;;;;;;5003773;28;19969;-88
2023/03/22 09:17:53;;;;;;;;;;;12.50;99.90;;;;;;5021726;28;19913;-88
2023/03/22 09:20:24;;;;;;;;;;;12.50;99.90;;;;;;5009252;28;19921;-89
2023/03/22 09:22:49;;;;;;;;;;;12.50;99.90;;;;;;5010752;28;19917;-89
2023/03/22 09:25:15;;;;;;;;;;;12.60;99.90;;;;;;5006315;28;20381;-89
2023/03/22 09:27:41;;;;;;;;;;;12.60;99.90;;;;;;5024669;28;20034;-90
2023/03/22 09:30:06;;;;;;;;;;;12.70;99.90;;;;;;5023396;28;19909;-90
2023/03/22 09:32:32;;;;;;;;;;;12.70;99.90;;;;;;5004661;28;19917;-93
2023/03/22 09:34:58;;;;;;;;;;;12.70;99.90;;;;;;5023845;28;20005;-93
2023/03/22 09:37:29;;;;;;;;;;;12.80;99.90;;;;;;5005853;28;19913;-93
2023/03/22 09:39:55;;;;;;;;;;;12.80;99.90;;;;;;5023590;28;19917;-92
2023/03/22 09:42:21;;;;;;;;;;;12.80;99.90;;;;;;5002847;28;19921;-92
2023/03/22 09:44:47;;;;;;;;;;;12.80;99.90;;;;;;5026449;28;19909;-94
2023/03/22 09:47:14;;;;;;;;;;;12.80;99.90;;;;;;5025990;28;20286;-87
2023/03/22 09:49:43;;;;;;;;;;;12.80;99.90;;;;;;5018243;28;20282;-90
2023/03/22 09:52:12;;;;;;;;;;;12.80;99.90;;;;;;5020071;28;19913;-90
2023/03/22 09:54:38;;;;;;;;;;;12.80;99.90;;;;;;5021047;28;19915;-88
2023/03/22 09:57:05;;;;;;;;;;;12.80;99.90;;;;;;5025586;28;19920;-90
2023/03/22 09:59:39;;;;;;;;;;;12.80;99.90;;;;;;5014129;28;19953;-90
2023/03/22 10:02:20;;;;;;;;;;;12.80;99.90;;;;;;5016384;28;19920;-90
2023/03/22 10:05:18;;;;;;;;;;;12.90;99.90;;;;;;5020490;28;19909;-90
2023/03/22 10:08:03;;;;;;;;;;;12.80;99.90;;;;;;4973370;28;19924;-89
2023/03/22 10:10:28;;;;;;;;;;;12.80;99.90;;;;;;5017467;28;19932;-89
2023/03/22 10:12:54;;;;;;;;;;;12.80;99.90;;;;;;5018341;28;20362;-89
2023/03/22 10:15:22;;;;;;;;;;;12.80;99.90;;;;;;5019630;28;19952;-89
2023/03/22 10:20:55;;;;;;;;;;;12.80;99.90;;;;;;5035561;28;19978;-89
2023/03/22 10:23:30;;;;;;;;;;;12.90;99.90;;;;;;5020455;28;19921;-89
2023/03/22 10:25:57;;;;;;;;;;;12.80;99.90;;;;;;5032975;28;19915;-89
2023/03/22 10:28:30;;;;;;;;;;;12.80;99.90;;;;;;5027969;28;19909;-89
2023/03/22 10:30:56;;;;;;;;;;;12.80;99.90;;;;;;5020739;28;20286;-89
2023/03/22 10:33:49;;;;;;;;;;;12.80;99.90;;;;;;5003576;28;20329;-89
2023/03/22 10:36:15;;;;;;;;;;;12.80;99.90;;;;;;5016608;28;20008;-89
2023/03/22 10:38:49;;;;;;;;;;;12.80;99.90;;;;;;5002485;28;19960;-94
2023/03/22 10:41:17;;;;;;;;;;;12.80;99.90;;;;;;5037007;28;19919;-92
2023/03/22 10:43:43;;;;;;;;;;;12.70;99.90;;;;;;5038760;28;19914;-94
2023/03/22 10:46:15;;;;;;;;;;;12.70;99.90;;;;;;5006704;28;19917;-93
2023/03/22 10:48:43;;;;;;;;;;;12.70;99.90;;;;;;5020499;28;19964;-93
2023/03/22 10:51:21;;;;;;;;;;;12.60;99.90;;;;;;5026912;28;19927;-94
2023/03/22 10:53:54;;;;;;;;;;;12.60;99.90;;;;;;5026013;28;19909;-93
2023/03/22 10:56:20;;;;;;;;;;;12.60;99.90;;;;;;5006071;28;19913;-89
2023/03/22 10:58:46;;;;;;;;;;;12.50;99.90;;;;;;5019369;28;20412;-89
2023/03/22 11:01:15;;;;;;;;;;;12.50;99.90;;;;;;5019387;28;19913;-89
2023/03/22 11:03:42;;;;;;;;;;;12.40;99.90;;;;;;5019973;28;19917;-89
2023/03/22 11:06:09;;;;;;;;;;;12.40;99.90;;;;;;5022639;28;19941;-89
2023/03/22 11:08:39;;;;;;;;;;;12.40;99.90;;;;;;5013332;28;19909;-89
2023/03/22 11:11:06;;;;;;;;;;;12.30;99.90;;;;;;4994780;28;19909;-89
2023/03/22 11:13:32;;;;;;;;;;;12.30;99.90;;;;;;5003673;28;19983;-90
2023/03/22 11:16:01;;;;;;;;;;;12.40;99.90;;;;;;4988339;28;19913;-90
2023/03/22 11:18:31;;;;;;;;;;;12.30;99.90;;;;;;5006986;28;19909;-90
2023/03/22 11:21:03;;;;;;;;;;;12.30;99.90;;;;;;5014280;28;19920;-91
2023/03/22 11:23:33;;;;;;;;;;;12.30;99.90;;;;;;5006371;28;19964;-90
2023/03/22 11:26:07;;;;;;;;;;;12.30;99.90;;;;;;4997476;28;19916;-91
2023/03/22 11:28:39;;;;;;;;;;;12.30;99.90;;;;;;5013140;28;19993;-95
2023/03/22 11:31:05;;;;;;;;;;;12.30;99.90;;;;;;5008245;28;19932;-95
2023/03/22 11:33:31;;;;;;;;;;;12.20;99.90;;;;;;5017630;28;19914;-94
2023/03/22 11:35:59;;;;;;;;;;;12.20;99.90;;;;;;4998812;28;19909;-91
2023/03/22 11:38:29;;;;;;;;;;;12.20;99.90;;;;;;4998621;28;19916;-91
2023/03/22 11:41:00;;;;;;;;;;;12.20;99.90;;;;;;5010174;28;19985;-91
2023/03/22 11:43:30;;;;;;;;;;;12.20;99.90;;;;;;5003302;28;19910;-91
2023/03/22 11:45:56;;;;;;;;;;;12.10;99.90;;;;;;5002817;28;19933;-94
2023/03/22 11:48:30;;;;;;;;;;;12.20;99.90;;;;;;5015365;28;20413;-92
2023/03/22 11:51:07;;;;;;;;;;;12.20;99.90;;;;;;5004979;28;20019;-92
2023/03/22 11:53:34;;;;;;;;;;;12.20;99.90;;;;;;5007532;28;19917;-95
2023/03/22 11:56:01;;;;;;;;;;;12.20;99.90;;;;;;5009455;28;20000;-95
2023/03/22 11:58:43;;;;;;;;;;;12.20;99.90;;;;;;5024332;28;19949;-95
2023/03/22 12:01:14;;;;;;;;;;;12.30;99.90;;;;;;5036148;28;19921;-96
2023/03/22 12:03:42;;;;;;;;;;;12.30;99.90;;;;;;5018975;28;20290;-94
2023/03/22 12:06:28;;;;;;;;;;;12.30;99.90;;;;;;5021987;28;20386;-92
2023/03/22 12:08:59;;;;;;;;;;;12.30;99.90;;;;;;5045546;28;19913;-92
2023/03/22 12:11:33;;;;;;;;;;;12.30;99.90;;;;;;5029253;28;20008;-93
2023/03/22 12:13:59;;;;;;;;;;;12.30;99.90;;;;;;5039508;28;19905;-92
2023/03/22 12:16:27;;;;;;;;;;;12.40;99.90;;;;;;5031042;28;20226;-92
2023/03/22 12:19:02;;;;;;;;;;;12.30;99.90;;;;;;5038434;28;19909;-89
2023/03/22 12:21:27;;;;;;;;;;;12.30;99.90;;;;;;5021345;28;19968;-89
2023/03/22 12:23:54;;;;;;;;;;;12.30;99.90;;;;;;5021564;28;19916;-90
2023/03/22 12:26:23;;;;;;;;;;;12.30;99.90;;;;;;5021145;28;19913;-87
2023/03/22 12:28:52;;;;;;;;;;;12.30;99.90;;;;;;5021707;28;20003;-89
2023/03/22 12:31:21;;;;;;;;;;;12.40;99.90;;;;;;5032438;28;19920;-88
2023/03/22 12:33:48;;;;;;;;;;;12.40;99.90;;;;;;5038215;28;19909;-88
2023/03/22 12:36:19;;;;;;;;;;;12.40;99.90;;;;;;5025519;28;19909;-89
2023/03/22 12:38:52;;;;;;;;;;;12.50;99.90;;;;;;5025329;28;20003;-87
2023/03/22 12:41:25;;;;;;;;;;;12.50;99.90;;;;;;5020523;28;19960;-88
2023/03/22 12:43:59;;;;;;;;;;;12.50;99.90;;;;;;5036959;28;20358;-88
2023/03/22 12:46:57;;;;;;;;;;;12.50;99.90;;;;;;5020649;28;19963;-88
2023/03/22 12:49:43;;;;;;;;;;;12.50;99.90;;;;;;4998284;28;19917;-88
2023/03/22 12:52:18;;;;;;;;;;;12.50;99.90;;;;;;4979667;28;19952;-93
2023/03/22 12:54:45;;;;;;;;;;;12.60;99.90;;;;;;5022164;28;19920;-94
2023/03/22 12:57:12;;;;;;;;;;;12.60;99.90;;;;;;5038913;28;19959;-94
2023/03/22 12:59:40;;;;;;;;;;;12.60;99.90;;;;;;5021011;28;19920;-94
2023/03/22 13:02:12;;;;;;;;;;;12.60;99.90;;;;;;5020615;28;19920;-94
2023/03/22 13:04:37;;;;;;;;;;;12.70;99.90;;;;;;5041925;28;19973;-94
2023/03/22 13:07:12;;;;;;;;;;;12.70;99.90;;;;;;5021433;28;20360;-94
2023/03/22 13:09:48;;;;;;;;;;;12.70;99.90;;;;;;5022052;28;19967;-89
2023/03/22 13:12:16;;;;;;;;;;;12.70;99.90;;;;;;5018752;28;19967;-89
2023/03/22 13:14:50;;;;;;;;;;;12.70;99.90;;;;;;5036489;28;19966;-88
2023/03/22 13:17:22;;;;;;;;;;;12.70;99.90;;;;;;5052230;28;20240;-91
2023/03/22 13:19:53;;;;;;;;;;;12.70;99.90;;;;;;5037517;28;19909;-88
2023/03/22 13:22:19;;;;;;;;;;;12.70;99.90;;;;;;5052173;28;19909;-89
2023/03/22 13:25:04;;;;;;;;;;;12.70;99.90;;;;;;5052091;28;19913;-89
2023/03/22 13:27:38;;;;;;;;;;;12.80;99.90;;;;;;5052119;28;19914;-89
2023/03/22 13:30:09;;;;;;;;;;;12.80;99.90;;;;;;5023894;28;19909;-89
2023/03/22 13:32:36;;;;;;;;;;;12.70;99.90;;;;;;5021303;28;20011;-89
2023/03/22 13:35:02;;;;;;;;;;;12.70;99.90;;;;;;5020509;28;19913;-89
2023/03/22 13:37:29;;;;;;;;;;;12.70;99.90;;;;;;5028201;28;20274;-88
2023/03/22 13:40:00;;;;;;;;;;;12.80;99.90;;;;;;5039609;28;19913;-96
2023/03/22 13:42:36;;;;;;;;;;;12.70;99.90;;;;;;5028262;28;19917;-88
2023/03/22 13:45:05;;;;;;;;;;;12.70;99.90;;;;;;5034901;28;20358;-89
2023/03/22 13:47:31;;;;;;;;;;;12.80;99.90;;;;;;5034895;28;19920;-89
2023/03/22 13:49:59;;;;;;;;;;;12.80;99.90;;;;;;5034598;28;19999;-89
2023/03/22 13:52:32;;;;;;;;;;;12.80;99.90;;;;;;5036060;28;20351;-89
2023/03/22 13:54:58;;;;;;;;;;;12.80;99.90;;;;;;5034215;28;19913;-89
2023/03/22 13:57:37;;;;;;;;;;;12.80;99.90;;;;;;5034972;28;19909;-90
2023/03/22 14:00:13;;;;;;;;;;;12.80;99.90;;;;;;5035346;28;19933;-89
2023/03/22 14:02:40;;;;;;;;;;;12.80;99.90;;;;;;5034419;28;19919;-89
2023/03/22 14:05:12;;;;;;;;;;;12.80;99.90;;;;;;5036130;28;19909;-89
2023/03/22 14:07:40;;;;;;;;;;;12.80;99.90;;;;;;5020742;28;19944;-87
2023/03/22 14:10:12;;;;;;;;;;;12.80;99.90;;;;;;5014911;28;20252;-87
2023/03/22 14:12:49;;;;;;;;;;;12.90;99.90;;;;;;5014631;28;20000;-87
2023/03/22 14:15:20;;;;;;;;;;;12.90;99.90;;;;;;5015024;28;19933;-88
2023/03/22 14:17:45;;;;;;;;;;;12.90;99.90;;;;;;5015444;28;20423;-88
2023/03/22 14:20:14;;;;;;;;;;;12.90;99.90;;;;;;5016225;28;19960;-88
2023/03/22 14:22:47;;;;;;;;;;;13.00;99.90;;;;;;5005429;28;19914;-89
2023/03/22 14:25:16;;;;;;;;;;;13.00;99.90;;;;;;4998426;28;19910;-90
2023/03/22 14:27:42;;;;;;;;;;;13.00;99.90;;;;;;5009960;28;19992;-89
2023/03/22 14:30:18;;;;;;;;;;;13.00;99.90;;;;;;4992928;28;19956;-88
2023/03/22 14:32:47;;;;;;;;;;;12.90;99.90;;;;;;5022628;28;19920;-93
2023/03/22 14:35:35;;;;;;;;;;;12.90;99.90;;;;;;5015254;28;19910;-93
2023/03/22 14:38:02;;;;;;;;;;;12.80;99.90;;;;;;4999171;28;20338;-92